Time;durP1;ratioP1;P1;durP2;ratioP2;P2;SDS_P1;SDS_P2;PMS_P1;PMS_P2;Temp;Humidity;BMP_temperature;BMP_pressure;BME280_temperature;BME280_humidity;BME280_pressure;Samples;Min_cycle;Max_cycle;Signal;HPM_P1;HPM_P2
2024/01/22 00:01:00;;;;;;;25.70;23.47;;;;;;;4.75;100.00;100432.22;4926602;29;20441;-34
2024/01/22 00:03:29;;;;;;;25.23;23.30;;;;;;;4.76;100.00;100385.50;4934198;29;20443;-37
2024/01/22 00:05:58;;;;;;;23.90;22.20;;;;;;;4.74;100.00;100356.63;4932753;28;20816;-38
2024/01/22 00:08:26;;;;;;;27.10;24.80;;;;;;;4.75;100.00;100373.31;4934295;29;20531;-38
2024/01/22 00:10:54;;;;;;;27.07;24.63;;;;;;;4.75;100.00;100360.91;4926222;29;20441;-37
2024/01/22 00:13:22;;;;;;;26.03;23.93;;;;;;;4.75;100.00;100355.63;4933889;29;20943;-35
2024/01/22 00:15:50;;;;;;;26.67;24.50;;;;;;;4.75;100.00;100354.81;4933772;28;20448;-40
2024/01/22 00:18:18;;;;;;;25.60;23.60;;;;;;;4.78;100.00;100334.16;4933426;29;21188;-38
2024/01/22 00:20:46;;;;;;;24.83;23.20;;;;;;;4.79;100.00;100330.53;4933018;29;20448;-38
2024/01/22 00:23:15;;;;;;;25.80;23.73;;;;;;;4.80;100.00;100328.72;4934327;29;20448;-39
2024/01/22 00:25:42;;;;;;;26.07;23.80;;;;;;;4.79;100.00;100324.41;4933129;29;20475;-36
2024/01/22 00:28:10;;;;;;;25.43;23.73;;;;;;;4.78;100.00;100318.31;4933425;29;20480;-39
2024/01/22 00:30:38;;;;;;;26.30;24.30;;;;;;;4.80;100.00;100310.22;4933663;29;20456;-36
2024/01/22 00:33:06;;;;;;;25.87;23.93;;;;;;;4.77;100.00;100298.19;4933507;29;20494;-41
2024/01/22 00:35:34;;;;;;;26.03;23.77;;;;;;;4.80;100.00;100303.13;4934088;29;20444;-35
2024/01/22 00:38:02;;;;;;;24.93;23.23;;;;;;;4.82;100.00;100301.13;4932143;28;20524;-36
2024/01/22 00:40:31;;;;;;;24.97;23.00;;;;;;;4.82;100.00;100282.66;4934404;29;20540;-38
2024/01/22 00:42:59;;;;;;;25.53;23.43;;;;;;;4.85;100.00;100290.22;4933020;29;20937;-36
2024/01/22 00:45:27;;;;;;;23.37;21.50;;;;;;;4.87;100.00;100285.59;4933035;29;20444;-36
2024/01/22 00:47:54;;;;;;;23.73;21.63;;;;;;;4.89;100.00;100275.69;4932602;28;20512;-39
2024/01/22 00:50:23;;;;;;;25.10;23.00;;;;;;;4.91;100.00;100262.28;4932735;29;20452;-35
2024/01/22 00:52:51;;;;;;;24.83;22.63;;;;;;;4.93;100.00;100255.00;4933286;29;20532;-36
2024/01/22 00:55:18;;;;;;;23.73;22.10;;;;;;;4.96;100.00;100262.59;4933646;29;21020;-36
2024/01/22 00:57:47;;;;;;;25.17;23.33;;;;;;;4.96;100.00;100244.94;4932175;28;20527;-36
2024/01/22 01:00:16;;;;;;;26.10;23.67;;;;;;;4.97;100.00;100254.50;4932736;29;20449;-38
2024/01/22 01:02:44;;;;;;;24.33;22.83;;;;;;;4.99;100.00;100222.63;4931761;29;20445;-36
2024/01/22 01:05:12;;;;;;;25.30;23.63;;;;;;;4.99;100.00;100212.88;4932911;29;20472;-36
2024/01/22 01:07:40;;;;;;;25.77;23.93;;;;;;;5.00;100.00;100198.69;4932033;28;21007;-36
2024/01/22 01:10:08;;;;;;;26.30;24.57;;;;;;;5.07;100.00;100168.91;4932785;29;20437;-34
2024/01/22 01:12:37;;;;;;;25.43;23.73;;;;;;;5.06;100.00;100213.00;4925141;29;20445;-35
2024/01/22 01:15:07;;;;;;;24.43;22.73;;;;;;;5.10;100.00;100197.63;4933202;29;20445;-36
2024/01/22 01:17:36;;;;;;;23.77;22.33;;;;;;;5.10;100.00;100198.47;4931890;28;20461;-38
2024/01/22 01:20:05;;;;;;;23.53;22.13;;;;;;;5.13;100.00;100165.56;4924667;29;20471;-36
2024/01/22 01:22:33;;;;;;;23.87;22.37;;;;;;;5.16;100.00;100166.03;4932745;29;20440;-36
2024/01/22 01:25:01;;;;;;;23.33;21.47;;;;;;;5.17;100.00;100183.53;4932437;29;20476;-36
2024/01/22 01:27:28;;;;;;;24.33;22.83;;;;;;;5.23;100.00;100163.50;4932447;28;20483;-36
2024/01/22 01:29:56;;;;;;;24.00;21.87;;;;;;;5.26;100.00;100186.94;4932816;29;20445;-35
2024/01/22 01:32:27;;;;;;;22.80;21.37;;;;;;;5.28;100.00;100156.72;4926360;29;20532;-36
2024/01/22 01:34:54;;;;;;;22.97;21.40;;;;;;;5.31;100.00;100103.47;4931635;29;20492;-36
2024/01/22 01:37:22;;;;;;;23.80;21.57;;;;;;;5.35;100.00;100114.50;4930991;28;20543;-35
2024/01/22 01:39:50;;;;;;;23.20;21.33;;;;;;;5.41;100.00;100134.94;4930860;29;20445;-38
2024/01/22 01:42:17;;;;;;;22.10;20.30;;;;;;;5.44;100.00;100127.47;4925855;29;20469;-36
2024/01/22 01:44:50;;;;;;;22.10;20.73;;;;;;;5.46;100.00;100090.28;4932041;29;20535;-36
2024/01/22 01:47:18;;;;;;;21.80;20.70;;;;;;;5.47;100.00;100136.88;4931950;28;20472;-38
2024/01/22 01:49:48;;;;;;;22.30;20.90;;;;;;;5.49;100.00;100101.34;4930969;29;20796;-36
2024/01/22 01:52:16;;;;;;;21.70;20.50;;;;;;;5.55;100.00;100074.16;4931939;29;20525;-36
2024/01/22 01:54:46;;;;;;;21.87;20.37;;;;;;;5.62;100.00;100091.94;4931184;29;20536;-38
2024/01/22 01:57:13;;;;;;;22.33;21.03;;;;;;;5.63;100.00;100088.31;4931393;28;20492;-36
2024/01/22 01:59:43;;;;;;;20.90;19.60;;;;;;;5.66;100.00;100058.84;4932149;29;20884;-36
2024/01/22 02:02:11;;;;;;;22.90;21.30;;;;;;;5.66;100.00;100109.09;4932765;29;20472;-36
2024/01/22 02:04:39;;;;;;;22.97;21.20;;;;;;;5.63;100.00;100069.78;4931664;29;20437;-36
2024/01/22 02:07:08;;;;;;;22.57;20.50;;;;;;;5.60;100.00;100057.75;4932076;28;20473;-40
2024/01/22 02:09:47;;;;;;;21.73;20.13;;;;;;;5.60;100.00;100073.63;4931464;29;20449;-37
2024/01/22 02:12:15;;;;;;;21.30;20.07;;;;;;;5.62;100.00;100050.44;4931997;29;20449;-40
2024/01/22 02:14:43;;;;;;;21.63;20.33;;;;;;;5.61;100.00;100038.25;4932646;29;20524;-36
2024/01/22 02:17:11;;;;;;;22.33;21.07;;;;;;;5.62;100.00;100045.16;4931977;28;20465;-38
2024/01/22 02:19:39;;;;;;;21.30;20.20;;;;;;;5.61;100.00;100032.94;4931449;29;20487;-42
2024/01/22 02:22:08;;;;;;;21.67;19.77;;;;;;;5.63;100.00;100043.34;4923885;29;20946;-39
2024/01/22 02:24:37;;;;;;;21.60;19.90;;;;;;;5.58;100.00;100001.56;4932110;29;20451;-38
2024/01/22 02:27:05;;;;;;;21.47;20.23;;;;;;;5.58;100.00;100036.75;4931131;28;20979;-39
2024/01/22 02:29:33;;;;;;;21.90;20.80;;;;;;;5.62;100.00;100007.31;4932489;29;20587;-37
2024/01/22 02:32:00;;;;;;;21.20;19.80;;;;;;;5.60;100.00;99999.56;4930884;29;20444;-36
2024/01/22 02:34:28;;;;;;;21.20;19.70;;;;;;;5.59;100.00;99984.69;4932556;29;20456;-36
2024/01/22 02:36:56;;;;;;;21.20;20.00;;;;;;;5.61;100.00;99989.81;4930338;28;20469;-36
2024/01/22 02:39:24;;;;;;;21.63;20.23;;;;;;;5.57;100.00;99982.25;4932661;29;20864;-36
2024/01/22 02:41:53;;;;;;;21.13;19.93;;;;;;;5.60;100.00;99967.81;4931294;29;20451;-37
2024/01/22 02:44:21;;;;;;;21.00;19.73;;;;;;;5.63;100.00;99956.88;4932705;29;20444;-37
2024/01/22 02:46:49;;;;;;;20.50;19.50;;;;;;;5.62;100.00;99946.47;4931054;28;20532;-37
2024/01/22 02:49:17;;;;;;;20.63;19.50;;;;;;;5.62;100.00;99952.59;4930164;29;20531;-36
2024/01/22 02:51:45;;;;;;;22.00;19.80;;;;;;;5.61;100.00;99945.66;4930948;29;20441;-40
2024/01/22 02:54:13;;;;;;;20.10;19.10;;;;;;;5.61;100.00;99956.25;4930954;29;20492;-39
2024/01/22 02:56:41;;;;;;;20.67;19.23;;;;;;;5.67;100.00;99939.66;4931037;28;20471;-38
2024/01/22 02:59:10;;;;;;;22.53;20.63;;;;;;;5.66;100.00;99929.22;4931700;29;20436;-36
2024/01/22 03:01:38;;;;;;;20.20;19.20;;;;;;;5.67;100.00;99923.78;4930893;29;20531;-36
2024/01/22 03:04:06;;;;;;;20.63;19.47;;;;;;;5.70;100.00;99907.53;4931597;29;20445;-35
2024/01/22 03:06:34;;;;;;;22.80;21.40;;;;;;;5.72;100.00;99913.44;4929686;28;21066;-36
2024/01/22 03:09:02;;;;;;;21.10;19.90;;;;;;;5.75;100.00;99894.56;4930669;29;20472;-36
2024/01/22 03:11:30;;;;;;;22.03;20.77;;;;;;;5.78;100.00;99896.84;4930904;29;20448;-40
2024/01/22 03:13:57;;;;;;;21.23;19.80;;;;;;;5.80;100.00;99886.06;4930739;29;20959;-39
2024/01/22 03:16:26;;;;;;;22.20;20.70;;;;;;;5.79;100.00;99872.03;4931974;28;20979;-36
2024/01/22 03:18:54;;;;;;;21.40;20.00;;;;;;;5.80;100.00;99880.75;4931290;29;20452;-36
2024/01/22 03:21:22;;;;;;;20.73;19.63;;;;;;;5.81;100.00;99861.25;4931500;29;20537;-35
2024/01/22 03:23:50;;;;;;;20.60;19.60;;;;;;;5.80;100.00;99849.84;4931514;29;20459;-38
2024/01/22 03:26:21;;;;;;;21.60;20.40;;;;;;;5.83;100.00;99843.34;4930841;28;20460;-40
2024/01/22 03:28:49;;;;;;;20.87;19.73;;;;;;;5.84;100.00;99837.88;4931286;29;20469;-36
2024/01/22 03:31:21;;;;;;;20.80;19.80;;;;;;;5.85;100.00;99826.34;4931400;29;20487;-36
2024/01/22 03:33:50;;;;;;;22.53;21.17;;;;;;;5.88;100.00;99841.00;4931563;29;20511;-36
2024/01/22 03:36:18;;;;;;;22.10;20.60;;;;;;;5.89;100.00;99822.28;4931138;28;20465;-36
2024/01/22 03:38:47;;;;;;;21.63;20.37;;;;;;;5.87;100.00;99795.19;4930949;29;20445;-36
2024/01/22 03:41:14;;;;;;;22.60;20.90;;;;;;;5.92;100.00;99810.50;4931799;29;20479;-36
2024/01/22 03:43:43;;;;;;;21.10;19.80;;;;;;;5.93;100.00;99801.56;4933953;29;20444;-37
2024/01/22 03:46:12;;;;;;;22.83;21.30;;;;;;;5.95;100.00;99788.94;4933182;28;20552;-36
2024/01/22 03:48:39;;;;;;;21.57;20.13;;;;;;;5.94;100.00;99779.41;4934538;29;20535;-36
2024/01/22 03:51:10;;;;;;;21.07;19.87;;;;;;;5.96;100.00;99758.84;4926370;29;20812;-37
2024/01/22 03:53:37;;;;;;;22.00;20.70;;;;;;;5.97;100.00;99744.63;4934483;29;20452;-36
2024/01/22 03:56:06;;;;;;;21.33;20.23;;;;;;;6.00;100.00;99755.59;4932856;28;20452;-34
2024/01/22 03:58:34;;;;;;;22.40;20.30;;;;;;;6.02;100.00;99740.38;4934709;29;20516;-36
2024/01/22 04:01:02;;;;;;;21.43;20.27;;;;;;;6.03;100.00;99742.00;4934025;29;20445;-36
2024/01/22 04:03:32;;;;;;;22.40;20.87;;;;;;;6.05;100.00;99737.34;4933269;29;20504;-36
2024/01/22 04:06:00;;;;;;;23.03;21.50;;;;;;;6.09;100.00;99721.91;4931705;28;20494;-36
2024/01/22 04:08:29;;;;;;;23.30;21.97;;;;;;;6.11;100.00;99711.94;4927954;29;20480;-36
2024/01/22 04:10:56;;;;;;;22.07;20.67;;;;;;;6.15;100.00;99699.97;4935115;29;20816;-39
2024/01/22 04:13:24;;;;;;;23.23;21.40;;;;;;;6.17;100.00;99697.94;4933410;29;20433;-36
2024/01/22 04:16:01;;;;;;;22.93;21.50;;;;;;;6.20;100.00;99657.84;4925513;29;20444;-37
2024/01/22 04:18:29;;;;;;;23.27;21.67;;;;;;;6.25;100.00;99694.31;4933282;29;20487;-36
2024/01/22 04:20:57;;;;;;;22.97;21.30;;;;;;;6.30;100.00;99697.22;4933377;29;20946;-36
2024/01/22 04:23:25;;;;;;;22.67;21.50;;;;;;;6.33;100.00;99673.00;4933947;29;20447;-36
2024/01/22 04:25:54;;;;;;;23.70;22.07;;;;;;;6.38;100.00;99691.75;4932443;28;20551;-36
2024/01/22 04:28:22;;;;;;;22.67;20.87;;;;;;;6.43;100.00;99628.41;4932866;29;20579;-36
2024/01/22 04:30:50;;;;;;;22.43;21.03;;;;;;;6.46;100.00;99618.25;4932537;29;20447;-39
2024/01/22 04:33:18;;;;;;;21.77;20.57;;;;;;;6.52;100.00;99657.19;4932667;29;21231;-36
2024/01/22 04:35:46;;;;;;;22.90;21.10;;;;;;;6.58;100.00;99682.91;4931808;28;20448;-35
2024/01/22 04:38:14;;;;;;;22.23;21.10;;;;;;;6.59;100.00;99683.72;4931943;29;20471;-40
2024/01/22 04:40:41;;;;;;;22.73;21.33;;;;;;;6.62;100.00;99656.84;4931990;29;21027;-40
2024/01/22 04:43:10;;;;;;;25.90;23.90;;;;;;;6.66;100.00;99613.03;4924140;29;20447;-38
2024/01/22 04:45:41;;;;;;;24.53;22.37;;;;;;;6.71;100.00;99634.47;4932884;29;20444;-38
2024/01/22 04:48:10;;;;;;;23.33;21.93;;;;;;;6.74;100.00;99639.34;4931129;29;20547;-38
2024/01/22 04:50:37;;;;;;;23.27;21.87;;;;;;;6.77;100.00;99643.44;4928748;29;20437;-45
2024/01/22 04:53:05;;;;;;;22.87;21.33;;;;;;;6.81;100.00;99629.59;4930908;29;20531;-42
2024/01/22 04:55:33;;;;;;;23.07;21.60;;;;;;;6.86;100.00;99624.53;4932148;29;20523;-36
2024/01/22 04:58:05;;;;;;;22.80;21.40;;;;;;;6.87;100.00;99626.13;4925113;28;20527;-36
2024/01/22 05:00:33;;;;;;;23.10;21.60;;;;;;;6.92;100.00;99642.28;4932861;29;20464;-37
2024/01/22 05:03:04;;;;;;;23.10;21.90;;;;;;;6.95;100.00;99625.16;4932026;29;20491;-38
2024/01/22 05:05:34;;;;;;;23.10;21.90;;;;;;;6.97;100.00;99607.22;4932783;29;20852;-40
2024/01/22 05:08:02;;;;;;;24.40;22.67;;;;;;;7.02;100.00;99597.63;4931191;28;20464;-38
2024/01/22 05:10:30;;;;;;;23.50;22.20;;;;;;;7.09;100.00;99585.22;4919228;29;20472;-38
2024/01/22 05:12:57;;;;;;;23.87;22.67;;;;;;;7.20;100.00;99567.88;4916950;29;20472;-36
2024/01/22 05:15:25;;;;;;;24.43;22.53;;;;;;;7.29;100.00;99568.53;4919944;29;20873;-36
2024/01/22 05:17:54;;;;;;;23.83;22.43;;;;;;;7.32;100.00;99574.22;4912635;29;21277;-39
2024/01/22 05:20:22;;;;;;;23.50;22.30;;;;;;;7.37;100.00;99570.97;4920568;29;20608;-36
2024/01/22 05:22:50;;;;;;;22.60;21.40;;;;;;;7.42;100.00;99565.84;4927706;29;20432;-39
2024/01/22 05:25:17;;;;;;;22.73;21.53;;;;;;;7.43;100.00;99549.75;4920477;29;20880;-36
2024/01/22 05:27:46;;;;;;;22.63;21.53;;;;;;;7.47;100.00;99558.91;4912793;29;20474;-39
2024/01/22 05:30:15;;;;;;;22.67;21.63;;;;;;;7.49;100.00;99559.53;4912822;29;20550;-41
2024/01/22 05:32:43;;;;;;;23.00;21.80;;;;;;;7.51;100.00;99560.13;4920401;29;20437;-36
2024/01/22 05:35:13;;;;;;;22.70;21.60;;;;;;;7.56;100.00;99546.25;4913838;29;20528;-36
2024/01/22 05:37:40;;;;;;;22.67;21.47;;;;;;;7.60;100.00;99563.38;4911928;29;20656;-35
2024/01/22 05:40:11;;;;;;;21.40;20.27;;;;;;;7.64;100.00;99559.31;4914188;29;20429;-38
2024/01/22 05:42:38;;;;;;;22.73;21.47;;;;;;;7.68;100.00;99553.38;4931347;29;20437;-36
2024/01/22 05:45:08;;;;;;;23.07;21.47;;;;;;;7.71;100.00;99547.66;4922580;29;20447;-36
2024/01/22 05:47:35;;;;;;;22.40;20.87;;;;;;;7.73;100.00;99558.91;4912983;29;20528;-36
2024/01/22 05:50:04;;;;;;;22.67;21.37;;;;;;;7.76;100.00;99542.53;4920448;29;20662;-37
2024/01/22 05:52:33;;;;;;;21.70;20.60;;;;;;;7.77;100.00;99536.22;4921058;29;20446;-36
2024/01/22 05:55:01;;;;;;;22.00;20.93;;;;;;;7.76;100.00;99529.25;4914665;29;20829;-36
2024/01/22 05:57:29;;;;;;;21.10;20.00;;;;;;;7.78;100.00;99534.38;4911987;29;20465;-36
2024/01/22 05:59:57;;;;;;;20.80;19.90;;;;;;;7.80;100.00;99517.22;4921023;29;20437;-36
2024/01/22 06:02:25;;;;;;;22.33;21.33;;;;;;;7.85;100.00;99513.97;4923454;29;20951;-37
2024/01/22 06:04:52;;;;;;;22.50;21.30;;;;;;;7.88;100.00;99508.22;4923983;29;20529;-39
2024/01/22 06:07:20;;;;;;;22.57;21.57;;;;;;;7.89;100.00;99498.41;4918827;28;20544;-40
2024/01/22 06:09:49;;;;;;;21.50;20.60;;;;;;;7.90;100.00;99500.03;4912228;29;20504;-36
2024/01/22 06:12:28;;;;;;;22.77;21.70;;;;;;;7.93;100.00;99499.63;4911595;29;20441;-36
2024/01/22 06:14:57;;;;;;;21.57;20.57;;;;;;;7.92;100.00;99493.50;4920155;29;20564;-36
2024/01/22 06:17:30;;;;;;;21.33;20.33;;;;;;;7.92;100.00;99477.56;4919454;29;20469;-39
2024/01/22 06:19:59;;;;;;;20.67;19.77;;;;;;;7.98;100.00;99484.69;4912325;29;20452;-39
2024/01/22 06:22:27;;;;;;;20.30;19.30;;;;;;;8.04;100.00;99491.00;4912014;29;20434;-39
2024/01/22 06:24:56;;;;;;;20.10;19.10;;;;;;;8.05;100.00;99492.63;4912052;29;20444;-34
2024/01/22 06:27:24;;;;;;;20.27;19.30;;;;;;;8.08;100.00;99478.94;4915318;29;20946;-36
2024/01/22 06:29:53;;;;;;;19.40;18.70;;;;;;;8.13;100.00;99479.94;4916836;29;21034;-36
2024/01/22 06:32:21;;;;;;;19.27;18.27;;;;;;;8.17;100.00;99445.81;4913445;29;20445;-36
2024/01/22 06:34:48;;;;;;;21.17;19.93;;;;;;;8.21;100.00;99479.69;4910770;29;20452;-36
2024/01/22 06:37:16;;;;;;;20.63;19.70;;;;;;;8.25;100.00;99470.28;4919565;29;20469;-37
2024/01/22 06:39:44;;;;;;;19.40;18.60;;;;;;;8.28;100.00;99479.69;4920382;29;20960;-37
2024/01/22 06:42:13;;;;;;;20.83;19.93;;;;;;;8.34;100.00;99486.81;4910912;29;20521;-36
2024/01/22 06:44:57;;;;;;;22.03;21.03;;;;;;;8.34;100.00;99484.16;4913282;29;20433;-37
2024/01/22 06:47:25;;;;;;;22.00;20.70;;;;;;;8.34;100.00;99478.84;4909996;29;20992;-36
2024/01/22 06:49:53;;;;;;;21.33;20.43;;;;;;;8.36;100.00;99490.09;4918565;29;20868;-37
2024/01/22 06:52:21;;;;;;;20.13;19.30;;;;;;;8.36;100.00;99481.31;4919944;29;20469;-36
2024/01/22 06:54:48;;;;;;;20.40;19.50;;;;;;;8.32;100.00;99484.38;4919366;29;20465;-37
2024/01/22 06:57:17;;;;;;;20.60;19.70;;;;;;;8.32;100.00;99484.38;4920457;29;20469;-41
2024/01/22 06:59:45;;;;;;;20.87;19.70;;;;;;;8.31;100.00;99461.50;4911353;29;20858;-36
2024/01/22 07:02:14;;;;;;;19.70;18.70;;;;;;;8.26;100.00;99469.25;4913483;29;20441;-37
2024/01/22 07:04:43;;;;;;;21.10;19.90;;;;;;;8.21;100.00;99471.72;4923625;29;20464;-41
2024/01/22 07:07:10;;;;;;;19.70;18.90;;;;;;;8.23;100.00;99472.34;4928677;28;20487;-40
2024/01/22 07:09:38;;;;;;;20.20;19.30;;;;;;;8.23;100.00;99469.69;4923935;29;20500;-39
2024/01/22 07:12:06;;;;;;;19.80;18.97;;;;;;;8.21;100.00;99460.31;4913780;29;20441;-36
2024/01/22 07:14:35;;;;;;;20.30;19.50;;;;;;;8.25;100.00;99451.69;4916434;29;20440;-39
2024/01/22 07:17:04;;;;;;;20.10;19.30;;;;;;;8.29;100.00;99454.78;4917676;29;20465;-40
2024/01/22 07:19:31;;;;;;;19.47;18.77;;;;;;;8.31;100.00;99482.75;4930632;29;20540;-37
2024/01/22 07:21:58;;;;;;;20.47;19.67;;;;;;;8.34;100.00;99453.09;4914716;29;20500;-37
2024/01/22 07:24:26;;;;;;;19.90;19.10;;;;;;;8.39;100.00;99465.75;4915684;29;20433;-36
2024/01/22 07:26:54;;;;;;;19.40;18.60;;;;;;;8.43;100.00;99452.84;4914647;29;20477;-39
2024/01/22 07:29:22;;;;;;;19.97;19.17;;;;;;;8.48;100.00;99475.09;4931380;29;20920;-36
2024/01/22 07:31:51;;;;;;;19.30;18.50;;;;;;;8.49;100.00;99460.78;4914484;29;20480;-36
2024/01/22 07:34:19;;;;;;;19.27;18.57;;;;;;;8.55;100.00;99469.72;4922467;29;20877;-35
2024/01/22 07:36:47;;;;;;;19.67;18.87;;;;;;;8.55;100.00;99459.09;4922246;28;20497;-38
2024/01/22 07:39:14;;;;;;;19.90;19.10;;;;;;;8.56;100.00;99466.06;4914856;29;20437;-39
2024/01/22 07:41:42;;;;;;;19.80;18.90;;;;;;;8.59;100.00;99487.69;4913652;29;20585;-35
2024/01/22 07:44:10;;;;;;;19.77;18.93;;;;;;;8.62;100.00;99505.88;4914416;29;20434;-36
2024/01/22 07:46:38;;;;;;;19.67;18.97;;;;;;;8.63;100.00;99501.38;4913911;29;20466;-35
2024/01/22 07:49:07;;;;;;;20.50;19.50;;;;;;;8.63;100.00;99493.41;4914731;29;20476;-36
2024/01/22 07:51:36;;;;;;;19.60;18.80;;;;;;;8.64;100.00;99487.88;4928685;29;20481;-36
2024/01/22 07:54:05;;;;;;;20.73;19.73;;;;;;;8.65;100.00;99492.16;4917915;29;20519;-35
2024/01/22 07:56:33;;;;;;;20.03;19.23;;;;;;;8.64;100.00;99492.34;4914528;29;20461;-39
2024/01/22 07:59:01;;;;;;;20.33;19.53;;;;;;;8.65;100.00;99505.44;4921166;29;20449;-36
2024/01/22 08:01:28;;;;;;;20.23;19.17;;;;;;;8.65;100.00;99513.41;4921823;29;20438;-36
2024/01/22 08:03:57;;;;;;;18.80;18.00;;;;;;;8.67;100.00;99510.53;4922374;29;20442;-36
2024/01/22 08:06:26;;;;;;;19.33;18.60;;;;;;;8.67;100.00;99521.16;4916318;29;20992;-36
2024/01/22 08:08:53;;;;;;;19.03;18.13;;;;;;;8.67;100.00;99511.34;4934222;29;20440;-35
2024/01/22 08:11:21;;;;;;;19.40;18.50;;;;;;;8.68;100.00;99523.63;4922545;29;20857;-35
2024/01/22 08:13:49;;;;;;;18.80;17.70;;;;;;;8.69;100.00;99535.06;4920100;29;20437;-36
2024/01/22 08:16:17;;;;;;;19.43;18.30;;;;;;;8.71;100.00;99540.97;4931371;28;20487;-39
2024/01/22 08:18:44;;;;;;;18.83;17.43;;;;;;;8.71;100.00;99541.81;4915023;29;20446;-34
2024/01/22 08:21:12;;;;;;;17.60;16.90;;;;;;;8.74;100.00;99528.09;4921535;29;20520;-35
2024/01/22 08:23:42;;;;;;;17.30;16.60;;;;;;;8.72;100.00;99551.38;4915235;29;20449;-36
2024/01/22 08:26:10;;;;;;;17.17;16.20;;;;;;;8.73;100.00;99573.47;4922952;28;20471;-36
2024/01/22 08:28:38;;;;;;;17.27;16.37;;;;;;;8.73;100.00;99573.47;4929162;29;20820;-36
2024/01/22 08:31:06;;;;;;;17.87;16.80;;;;;;;8.72;100.00;99603.75;4921785;29;20477;-35
2024/01/22 08:33:33;;;;;;;17.20;16.50;;;;;;;8.72;100.00;99635.66;4917214;29;20813;-38
2024/01/22 08:36:01;;;;;;;18.93;18.03;;;;;;;8.72;100.00;99635.66;4917402;29;20496;-36
2024/01/22 08:38:29;;;;;;;19.43;18.30;;;;;;;8.71;100.00;99640.16;4920829;29;20465;-36
2024/01/22 08:40:58;;;;;;;19.03;18.13;;;;;;;8.73;100.00;99640.75;4921424;29;20520;-34
2024/01/22 08:43:26;;;;;;;19.80;18.90;;;;;;;8.72;100.00;99654.25;4913527;29;20479;-34
2024/01/22 08:45:53;;;;;;;21.27;19.87;;;;;;;8.68;100.00;99637.91;4927756;28;20473;-36
2024/01/22 08:48:21;;;;;;;21.13;19.90;;;;;;;8.65;100.00;99640.97;4933566;29;20515;-35
2024/01/22 08:50:49;;;;;;;20.10;19.10;;;;;;;8.61;100.00;99631.78;4927628;29;20841;-35
2024/01/22 08:53:18;;;;;;;20.53;19.30;;;;;;;8.60;100.00;99637.34;4921017;29;20482;-40
2024/01/22 08:55:45;;;;;;;20.47;19.37;;;;;;;8.64;100.00;99641.19;4917450;29;20448;-36
2024/01/22 08:58:15;;;;;;;20.57;19.27;;;;;;;8.61;100.00;99654.88;4913174;29;20460;-34
2024/01/22 09:00:44;;;;;;;20.47;19.17;;;;;;;8.58;100.00;99661.44;4924129;29;20531;-34
2024/01/22 09:03:12;;;;;;;21.20;19.83;;;;;;;8.57;100.00;99649.16;4924186;29;21145;-36
2024/01/22 09:05:40;;;;;;;21.23;19.73;;;;;;;8.58;100.00;99652.66;4919780;29;20441;-36
2024/01/22 09:08:08;;;;;;;20.47;19.17;;;;;;;8.59;100.00;99668.41;4920196;29;20662;-36
2024/01/22 09:10:36;;;;;;;21.13;19.50;;;;;;;8.61;100.00;99678.81;4913020;29;20445;-34
2024/01/22 09:13:04;;;;;;;22.37;20.30;;;;;;;8.58;100.00;99671.25;4927963;29;20544;-35
2024/01/22 09:15:33;;;;;;;34.53;24.83;;;;;;;8.61;100.00;99673.50;4931797;29;20433;-35
2024/01/22 09:18:01;;;;;;;35.00;25.47;;;;;;;8.60;100.00;99685.16;4931245;28;20469;-35
2024/01/22 09:20:30;;;;;;;33.10;24.03;;;;;;;8.59;100.00;99671.06;4920784;29;20437;-38
2024/01/22 09:22:58;;;;;;;25.40;22.13;;;;;;;8.59;100.00;99676.38;4912396;29;20440;-35
2024/01/22 09:25:25;;;;;;;23.77;21.67;;;;;;;8.63;100.00;99671.47;4928376;29;20477;-38
2024/01/22 09:27:53;;;;;;;24.20;21.63;;;;;;;8.58;100.00;99679.22;4925872;29;20496;-36
2024/01/22 09:30:20;;;;;;;24.27;21.97;;;;;;;8.59;100.00;99694.16;4923979;29;20524;-38
2024/01/22 09:32:50;;;;;;;24.40;22.17;;;;;;;8.53;100.00;99687.00;4919442;29;20485;-38
2024/01/22 09:35:18;;;;;;;25.83;22.53;;;;;;;8.52;100.00;99696.00;4920973;29;21070;-37
2024/01/22 09:37:46;;;;;;;25.30;22.00;;;;;;;8.50;100.00;99695.41;4921045;29;20473;-39
2024/01/22 09:40:15;;;;;;;25.60;23.40;;;;;;;8.43;100.00;99699.91;4919602;29;20479;-35
2024/01/22 09:42:55;;;;;;;36.03;23.03;;;;;;;8.41;100.00;99720.56;4913470;29;20469;-35
2024/01/22 09:45:24;;;;;;;27.27;24.00;;;;;;;8.38;100.00;99710.34;4912664;29;20944;-40
2024/01/22 09:47:54;;;;;;;35.87;24.00;;;;;;;8.41;100.00;99708.09;4912855;29;20524;-35
2024/01/22 09:50:22;;;;;;;35.17;24.70;;;;;;;8.39;100.00;99717.31;4921510;29;20520;-35
2024/01/22 09:52:52;;;;;;;26.47;23.73;;;;;;;8.40;100.00;99711.75;4931038;29;20484;-35
2024/01/22 09:55:22;;;;;;;41.60;27.17;;;;;;;8.41;100.00;99707.28;4918829;29;20441;-39
2024/01/22 09:57:54;;;;;;;33.37;25.97;;;;;;;8.39;100.00;99709.34;4926875;29;20488;-41
2024/01/22 10:00:25;;;;;;;44.40;27.53;;;;;;;8.40;100.00;99725.06;4922144;29;20433;-39
2024/01/22 10:02:56;;;;;;;45.83;27.60;;;;;;;8.37;100.00;99727.28;4917139;29;20486;-37
2024/01/22 10:05:24;;;;;;;38.37;27.23;;;;;;;8.29;100.00;99731.81;4911901;29;20441;-37
2024/01/22 10:07:52;;;;;;;37.70;27.40;;;;;;;8.29;100.00;99720.38;4911666;29;21092;-35
2024/01/22 10:10:21;;;;;;;34.80;25.40;;;;;;;8.25;100.00;99722.59;4921395;29;21081;-37
2024/01/22 10:13:03;;;;;;;38.73;27.10;;;;;;;8.35;100.00;99730.19;4930784;29;20531;-37
2024/01/22 10:15:33;;;;;;;40.23;30.60;;;;;;;8.42;100.00;99736.31;4931278;29;20437;-36
2024/01/22 10:18:10;;;;;;;36.33;30.73;;;;;;;8.52;100.00;99738.50;4923964;28;20474;-37
2024/01/22 10:20:39;;;;;;;38.67;26.27;;;;;;;8.53;100.00;99726.88;4920079;29;20468;-38
2024/01/22 10:23:07;;;;;;;38.27;25.80;;;;;;;8.58;100.00;99745.66;4911297;29;20989;-39
2024/01/22 10:25:35;;;;;;;47.17;26.40;;;;;;;8.64;100.00;99743.00;4930364;29;20867;-37
2024/01/22 10:28:11;;;;;;;38.23;25.70;;;;;;;8.75;100.00;99746.88;4915813;28;20500;-40
2024/01/22 10:30:41;;;;;;;35.23;25.13;;;;;;;8.79;100.00;99740.09;4919118;29;20829;-41
2024/01/22 10:33:12;;;;;;;41.43;25.97;;;;;;;8.83;100.00;99747.44;4918873;29;20528;-37
2024/01/22 10:35:41;;;;;;;48.77;26.80;;;;;;;8.87;100.00;99755.81;4919521;29;20482;-36
2024/01/22 10:38:10;;;;;;;41.10;27.17;;;;;;;8.85;100.00;99760.53;4912627;29;20553;-38
2024/01/22 10:40:38;;;;;;;43.40;27.83;;;;;;;8.95;100.00;99757.44;4913273;29;20473;-39
2024/01/22 10:43:24;;;;;;;45.90;28.53;;;;;;;8.93;100.00;99752.31;4921046;29;20438;-39
2024/01/22 10:45:52;;;;;;;33.73;27.90;;;;;;;8.96;100.00;99762.53;4910897;29;20425;-40
2024/01/22 10:48:24;;;;;;;46.37;29.90;;;;;;;8.93;100.00;99764.81;4911232;29;20524;-40
2024/01/22 10:51:08;;;;;;;43.33;27.27;;;;;;;8.98;100.00;99776.44;4914511;29;20497;-37
2024/01/22 10:53:37;;;;;;;46.07;31.53;;;;;;;9.01;100.00;99768.03;4916891;29;21014;-36
2024/01/22 10:56:13;;;;;;;45.27;28.40;;;;;;;8.94;100.00;99755.78;4925918;28;20456;-36
2024/01/22 10:58:43;;;;;;;44.67;28.40;;;;;;;9.02;100.00;99763.56;4931143;29;20747;-39
2024/01/22 11:01:15;;;;;;;53.30;29.63;;;;;;;8.94;100.00;99774.41;4923675;29;20676;-36
2024/01/22 11:03:48;;;;;;;55.17;29.33;;;;;;;9.12;100.00;99778.03;4915117;29;20498;-39
2024/01/22 11:06:21;;;;;;;46.87;27.70;;;;;;;9.18;100.00;99773.69;4915058;29;20456;-36
2024/01/22 11:08:51;;;;;;;54.00;27.50;;;;;;;9.26;100.00;99774.28;4920077;29;20440;-38
2024/01/22 11:11:20;;;;;;;54.10;29.33;;;;;;;9.31;100.00;99771.81;4925326;29;20447;-36
2024/01/22 11:13:51;;;;;;;46.60;28.80;;;;;;;9.31;100.00;99776.31;4922135;29;20478;-36
2024/01/22 11:16:20;;;;;;;41.77;28.57;;;;;;;9.28;100.00;99777.56;4916222;29;20461;-36
2024/01/22 11:18:58;;;;;;;41.77;28.40;;;;;;;9.35;100.00;99765.03;4935811;29;20435;-37
2024/01/22 11:21:33;;;;;;;44.00;29.00;;;;;;;9.31;100.00;99777.13;4925507;29;20445;-38